sensor_id;sensor_type;location;lat;lon;timestamp;temperature;humidity
13606;DHT22;6874;52.084;5.090;2023-06-14T00:01:27;22.40;47.30
13606;DHT22;6874;52.084;5.090;2023-06-14T00:03:52;22.50;47.50
13606;DHT22;6874;52.084;5.090;2023-06-14T00:06:19;22.40;47.30
13606;DHT22;6874;52.084;5.090;2023-06-14T00:08:45;22.30;47.30
13606;DHT22;6874;52.084;5.090;2023-06-14T00:11:10;22.20;47.10
13606;DHT22;6874;52.084;5.090;2023-06-14T00:13:36;22.30;47.50
13606;DHT22;6874;52.084;5.090;2023-06-14T00:16:02;22.20;47.30
13606;DHT22;6874;52.084;5.090;2023-06-14T00:18:29;22.20;47.20
13606;DHT22;6874;52.084;5.090;2023-06-14T00:20:55;22.20;47.20
13606;DHT22;6874;52.084;5.090;2023-06-14T00:23:21;22.10;47.20
13606;DHT22;6874;52.084;5.090;2023-06-14T00:25:46;22.10;47.00
13606;DHT22;6874;52.084;5.090;2023-06-14T00:28:12;22.00;47.00
13606;DHT22;6874;52.084;5.090;2023-06-14T00:30:38;22.00;47.10
13606;DHT22;6874;52.084;5.090;2023-06-14T00:33:04;21.90;47.10
13606;DHT22;6874;52.084;5.090;2023-06-14T00:35:29;21.90;47.00
13606;DHT22;6874;52.084;5.090;2023-06-14T00:37:55;21.90;47.00
13606;DHT22;6874;52.084;5.090;2023-06-14T00:40:21;21.90;47.00
13606;DHT22;6874;52.084;5.090;2023-06-14T00:42:47;21.90;47.00
13606;DHT22;6874;52.084;5.090;2023-06-14T00:45:13;21.80;46.90
13606;DHT22;6874;52.084;5.090;2023-06-14T00:47:41;21.80;47.00
13606;DHT22;6874;52.084;5.090;2023-06-14T00:50:09;21.80;46.90
13606;DHT22;6874;52.084;5.090;2023-06-14T00:52:35;21.80;46.80
13606;DHT22;6874;52.084;5.090;2023-06-14T00:55:01;21.70;46.80
13606;DHT22;6874;52.084;5.090;2023-06-14T00:57:27;21.70;46.90
13606;DHT22;6874;52.084;5.090;2023-06-14T00:59:55;21.70;47.40
13606;DHT22;6874;52.084;5.090;2023-06-14T01:02:21;21.70;46.90
13606;DHT22;6874;52.084;5.090;2023-06-14T01:04:47;21.60;46.90
13606;DHT22;6874;52.084;5.090;2023-06-14T01:15:13;21.50;47.00
13606;DHT22;6874;52.084;5.090;2023-06-14T01:17:39;21.50;47.30
13606;DHT22;6874;52.084;5.090;2023-06-14T01:20:12;21.50;47.00
13606;DHT22;6874;52.084;5.090;2023-06-14T01:22:52;21.40;47.00
13606;DHT22;6874;52.084;5.090;2023-06-14T01:25:19;21.40;47.20
13606;DHT22;6874;52.084;5.090;2023-06-14T01:27:59;21.40;47.20
13606;DHT22;6874;52.084;5.090;2023-06-14T01:30:26;21.30;47.20
13606;DHT22;6874;52.084;5.090;2023-06-14T01:32:53;21.30;47.20
13606;DHT22;6874;52.084;5.090;2023-06-14T01:35:20;21.30;47.10
13606;DHT22;6874;52.084;5.090;2023-06-14T01:37:52;21.20;47.10
13606;DHT22;6874;52.084;5.090;2023-06-14T01:40:19;21.20;47.10
13606;DHT22;6874;52.084;5.090;2023-06-14T01:42:50;21.20;47.10
13606;DHT22;6874;52.084;5.090;2023-06-14T01:45:16;21.10;47.00
13606;DHT22;6874;52.084;5.090;2023-06-14T01:47:44;21.10;47.10
13606;DHT22;6874;52.084;5.090;2023-06-14T01:50:11;21.10;47.00
13606;DHT22;6874;52.084;5.090;2023-06-14T01:52:37;21.10;47.80
13606;DHT22;6874;52.084;5.090;2023-06-14T01:55:04;21.10;47.30
13606;DHT22;6874;52.084;5.090;2023-06-14T01:57:30;21.00;47.30
13606;DHT22;6874;52.084;5.090;2023-06-14T01:59:56;21.00;47.30
13606;DHT22;6874;52.084;5.090;2023-06-14T02:02:21;20.90;47.20
13606;DHT22;6874;52.084;5.090;2023-06-14T02:04:47;20.90;47.20
13606;DHT22;6874;52.084;5.090;2023-06-14T02:07:13;20.90;47.30
13606;DHT22;6874;52.084;5.090;2023-06-14T02:09:40;20.90;47.30
13606;DHT22;6874;52.084;5.090;2023-06-14T02:12:06;20.80;47.30
13606;DHT22;6874;52.084;5.090;2023-06-14T02:14:31;20.80;47.20
13606;DHT22;6874;52.084;5.090;2023-06-14T02:16:57;20.80;47.40
13606;DHT22;6874;52.084;5.090;2023-06-14T02:19:23;20.80;47.50
13606;DHT22;6874;52.084;5.090;2023-06-14T02:21:49;20.70;47.40
13606;DHT22;6874;52.084;5.090;2023-06-14T02:24:15;20.70;47.50
13606;DHT22;6874;52.084;5.090;2023-06-14T02:26:41;20.70;47.40
13606;DHT22;6874;52.084;5.090;2023-06-14T02:29:07;20.70;47.50
13606;DHT22;6874;52.084;5.090;2023-06-14T02:31:38;20.60;47.40
13606;DHT22;6874;52.084;5.090;2023-06-14T02:34:03;20.60;47.50
13606;DHT22;6874;52.084;5.090;2023-06-14T02:36:29;20.70;47.70
13606;DHT22;6874;52.084;5.090;2023-06-14T02:38:56;20.50;47.50
13606;DHT22;6874;52.084;5.090;2023-06-14T02:41:23;20.60;47.70
13606;DHT22;6874;52.084;5.090;2023-06-14T02:43:49;20.50;47.60
13606;DHT22;6874;52.084;5.090;2023-06-14T02:46:14;20.50;47.60
13606;DHT22;6874;52.084;5.090;2023-06-14T02:48:41;20.50;47.80
13606;DHT22;6874;52.084;5.090;2023-06-14T02:51:06;20.40;47.70
13606;DHT22;6874;52.084;5.090;2023-06-14T02:53:33;20.30;47.60
13606;DHT22;6874;52.084;5.090;2023-06-14T02:55:59;20.40;47.70
13606;DHT22;6874;52.084;5.090;2023-06-14T02:58:26;20.30;47.90
13606;DHT22;6874;52.084;5.090;2023-06-14T03:00:52;20.40;47.90
13606;DHT22;6874;52.084;5.090;2023-06-14T03:03:20;20.30;47.90
13606;DHT22;6874;52.084;5.090;2023-06-14T03:05:48;20.20;47.80
13606;DHT22;6874;52.084;5.090;2023-06-14T03:08:15;20.20;47.90
13606;DHT22;6874;52.084;5.090;2023-06-14T03:10:49;20.20;48.00
13606;DHT22;6874;52.084;5.090;2023-06-14T03:13:15;20.20;48.10
13606;DHT22;6874;52.084;5.090;2023-06-14T03:15:46;20.20;48.00
13606;DHT22;6874;52.084;5.090;2023-06-14T03:18:13;20.10;47.90
13606;DHT22;6874;52.084;5.090;2023-06-14T03:20:40;20.10;48.00
13606;DHT22;6874;52.084;5.090;2023-06-14T03:23:06;20.10;48.00
13606;DHT22;6874;52.084;5.090;2023-06-14T03:25:32;20.00;48.00
13606;DHT22;6874;52.084;5.090;2023-06-14T03:28:03;20.10;48.10
13606;DHT22;6874;52.084;5.090;2023-06-14T03:30:30;20.00;48.10
13606;DHT22;6874;52.084;5.090;2023-06-14T03:32:56;20.00;48.20
13606;DHT22;6874;52.084;5.090;2023-06-14T03:35:22;19.90;48.30
13606;DHT22;6874;52.084;5.090;2023-06-14T03:37:48;19.90;48.20
13606;DHT22;6874;52.084;5.090;2023-06-14T03:40:18;19.90;48.30
13606;DHT22;6874;52.084;5.090;2023-06-14T03:42:44;19.90;48.40
13606;DHT22;6874;52.084;5.090;2023-06-14T03:45:09;19.80;48.40
13606;DHT22;6874;52.084;5.090;2023-06-14T03:47:35;19.80;48.20
13606;DHT22;6874;52.084;5.090;2023-06-14T03:50:02;19.80;48.40
13606;DHT22;6874;52.084;5.090;2023-06-14T03:52:29;19.70;48.50
13606;DHT22;6874;52.084;5.090;2023-06-14T03:54:55;19.80;48.70
13606;DHT22;6874;52.084;5.090;2023-06-14T03:57:21;19.70;48.50
13606;DHT22;6874;52.084;5.090;2023-06-14T03:59:47;19.70;48.80
13606;DHT22;6874;52.084;5.090;2023-06-14T04:02:12;19.70;48.70
13606;DHT22;6874;52.084;5.090;2023-06-14T04:04:41;19.60;48.70
13606;DHT22;6874;52.084;5.090;2023-06-14T04:07:10;19.60;48.90
13606;DHT22;6874;52.084;5.090;2023-06-14T04:09:37;19.60;49.00
13606;DHT22;6874;52.084;5.090;2023-06-14T04:12:03;19.60;49.00
13606;DHT22;6874;52.084;5.090;2023-06-14T04:14:29;19.50;49.10
13606;DHT22;6874;52.084;5.090;2023-06-14T04:16:56;19.50;48.90
13606;DHT22;6874;52.084;5.090;2023-06-14T04:19:21;19.50;49.00
13606;DHT22;6874;52.084;5.090;2023-06-14T04:21:47;19.50;49.00
13606;DHT22;6874;52.084;5.090;2023-06-14T04:24:12;19.60;49.30
13606;DHT22;6874;52.084;5.090;2023-06-14T04:26:42;19.40;49.30
13606;DHT22;6874;52.084;5.090;2023-06-14T04:29:10;19.40;49.10
13606;DHT22;6874;52.084;5.090;2023-06-14T04:31:42;19.40;49.20
13606;DHT22;6874;52.084;5.090;2023-06-14T04:34:09;19.40;49.20
13606;DHT22;6874;52.084;5.090;2023-06-14T04:36:41;19.40;49.30
13606;DHT22;6874;52.084;5.090;2023-06-14T04:39:08;19.30;49.30
13606;DHT22;6874;52.084;5.090;2023-06-14T04:41:34;19.30;49.50
13606;DHT22;6874;52.084;5.090;2023-06-14T04:44:01;19.30;49.60
13606;DHT22;6874;52.084;5.090;2023-06-14T04:46:29;19.30;49.70
13606;DHT22;6874;52.084;5.090;2023-06-14T04:48:55;19.30;49.80
13606;DHT22;6874;52.084;5.090;2023-06-14T04:51:22;19.20;49.60
13606;DHT22;6874;52.084;5.090;2023-06-14T04:53:55;19.20;49.70
13606;DHT22;6874;52.084;5.090;2023-06-14T04:56:24;19.20;49.80
13606;DHT22;6874;52.084;5.090;2023-06-14T04:58:50;19.20;49.70
13606;DHT22;6874;52.084;5.090;2023-06-14T05:01:17;19.20;50.00
13606;DHT22;6874;52.084;5.090;2023-06-14T05:03:42;19.20;50.00
13606;DHT22;6874;52.084;5.090;2023-06-14T05:06:10;19.10;50.00
13606;DHT22;6874;52.084;5.090;2023-06-14T05:08:37;19.10;50.00
13606;DHT22;6874;52.084;5.090;2023-06-14T05:11:02;19.10;50.10
13606;DHT22;6874;52.084;5.090;2023-06-14T05:13:28;19.10;50.10
13606;DHT22;6874;52.084;5.090;2023-06-14T05:15:54;19.10;50.10
13606;DHT22;6874;52.084;5.090;2023-06-14T05:18:19;19.10;50.10
13606;DHT22;6874;52.084;5.090;2023-06-14T05:20:45;19.10;50.30
13606;DHT22;6874;52.084;5.090;2023-06-14T05:23:11;19.10;50.20
13606;DHT22;6874;52.084;5.090;2023-06-14T05:25:45;19.10;50.90
13606;DHT22;6874;52.084;5.090;2023-06-14T05:28:11;19.10;50.40
13606;DHT22;6874;52.084;5.090;2023-06-14T05:30:38;19.10;50.50
13606;DHT22;6874;52.084;5.090;2023-06-14T05:33:05;19.00;50.50
13606;DHT22;6874;52.084;5.090;2023-06-14T05:35:30;19.00;50.50
13606;DHT22;6874;52.084;5.090;2023-06-14T05:37:56;19.00;50.50
13606;DHT22;6874;52.084;5.090;2023-06-14T05:40:21;19.10;50.60
13606;DHT22;6874;52.084;5.090;2023-06-14T05:42:47;19.00;50.60
13606;DHT22;6874;52.084;5.090;2023-06-14T05:45:12;19.00;50.50
13606;DHT22;6874;52.084;5.090;2023-06-14T05:47:40;19.00;50.80
13606;DHT22;6874;52.084;5.090;2023-06-14T05:50:06;19.00;50.70
13606;DHT22;6874;52.084;5.090;2023-06-14T05:52:31;19.00;50.60
13606;DHT22;6874;52.084;5.090;2023-06-14T05:54:57;19.10;50.80
13606;DHT22;6874;52.084;5.090;2023-06-14T05:57:22;19.00;50.90
13606;DHT22;6874;52.084;5.090;2023-06-14T05:59:48;19.00;50.90
13606;DHT22;6874;52.084;5.090;2023-06-14T06:02:13;19.10;51.20
13606;DHT22;6874;52.084;5.090;2023-06-14T06:04:39;19.10;51.00
13606;DHT22;6874;52.084;5.090;2023-06-14T06:07:05;19.00;51.00
13606;DHT22;6874;52.084;5.090;2023-06-14T06:09:30;19.10;51.00
13606;DHT22;6874;52.084;5.090;2023-06-14T06:11:56;19.10;51.10
13606;DHT22;6874;52.084;5.090;2023-06-14T06:14:21;19.10;51.00
13606;DHT22;6874;52.084;5.090;2023-06-14T06:16:47;19.10;51.10
13606;DHT22;6874;52.084;5.090;2023-06-14T06:19:13;19.10;51.10
13606;DHT22;6874;52.084;5.090;2023-06-14T06:21:38;19.10;51.30
13606;DHT22;6874;52.084;5.090;2023-06-14T06:24:05;19.20;51.30
13606;DHT22;6874;52.084;5.090;2023-06-14T06:26:31;19.20;51.20
13606;DHT22;6874;52.084;5.090;2023-06-14T06:28:59;19.20;51.20
13606;DHT22;6874;52.084;5.090;2023-06-14T06:31:25;19.20;52.00
13606;DHT22;6874;52.084;5.090;2023-06-14T06:33:53;19.20;51.20
13606;DHT22;6874;52.084;5.090;2023-06-14T06:36:20;19.20;51.20
13606;DHT22;6874;52.084;5.090;2023-06-14T06:38:47;19.30;51.40
13606;DHT22;6874;52.084;5.090;2023-06-14T06:41:12;19.30;51.40
13606;DHT22;6874;52.084;5.090;2023-06-14T06:43:38;19.30;51.40
13606;DHT22;6874;52.084;5.090;2023-06-14T06:46:03;19.30;51.40
13606;DHT22;6874;52.084;5.090;2023-06-14T06:48:29;19.40;51.50
13606;DHT22;6874;52.084;5.090;2023-06-14T06:50:55;19.40;51.60
13606;DHT22;6874;52.084;5.090;2023-06-14T06:53:20;19.50;51.70
13606;DHT22;6874;52.084;5.090;2023-06-14T06:55:46;19.50;51.90
13606;DHT22;6874;52.084;5.090;2023-06-14T06:58:12;19.50;51.90
13606;DHT22;6874;52.084;5.090;2023-06-14T07:00:38;19.60;51.90
13606;DHT22;6874;52.084;5.090;2023-06-14T07:03:03;19.60;51.90
13606;DHT22;6874;52.084;5.090;2023-06-14T07:05:29;19.70;52.20
13606;DHT22;6874;52.084;5.090;2023-06-14T07:07:55;19.80;52.40
13606;DHT22;6874;52.084;5.090;2023-06-14T07:10:21;19.80;52.10
13606;DHT22;6874;52.084;5.090;2023-06-14T07:12:46;19.90;52.00
13606;DHT22;6874;52.084;5.090;2023-06-14T07:15:12;20.00;52.20
13606;DHT22;6874;52.084;5.090;2023-06-14T07:17:37;20.10;52.00
13606;DHT22;6874;52.084;5.090;2023-06-14T07:20:05;20.20;52.10
13606;DHT22;6874;52.084;5.090;2023-06-14T07:22:33;20.30;52.00
13606;DHT22;6874;52.084;5.090;2023-06-14T07:24:59;20.50;51.90
13606;DHT22;6874;52.084;5.090;2023-06-14T07:27:24;20.70;52.00
13606;DHT22;6874;52.084;5.090;2023-06-14T07:29:50;20.90;52.30
13606;DHT22;6874;52.084;5.090;2023-06-14T07:32:15;21.10;52.10
13606;DHT22;6874;52.084;5.090;2023-06-14T07:34:41;21.30;51.70
13606;DHT22;6874;52.084;5.090;2023-06-14T07:37:06;21.50;51.20
13606;DHT22;6874;52.084;5.090;2023-06-14T07:39:32;21.80;51.20
13606;DHT22;6874;52.084;5.090;2023-06-14T07:41:57;22.10;50.70
13606;DHT22;6874;52.084;5.090;2023-06-14T07:44:23;22.30;50.60
13606;DHT22;6874;52.084;5.090;2023-06-14T07:46:48;22.60;50.10
13606;DHT22;6874;52.084;5.090;2023-06-14T07:49:17;22.80;49.90
13606;DHT22;6874;52.084;5.090;2023-06-14T07:51:42;23.10;49.40
13606;DHT22;6874;52.084;5.090;2023-06-14T07:54:09;23.30;49.20
13606;DHT22;6874;52.084;5.090;2023-06-14T07:56:35;23.50;48.90
13606;DHT22;6874;52.084;5.090;2023-06-14T07:59:01;23.70;48.50
13606;DHT22;6874;52.084;5.090;2023-06-14T08:01:27;23.90;48.40
13606;DHT22;6874;52.084;5.090;2023-06-14T08:03:53;24.10;48.10
13606;DHT22;6874;52.084;5.090;2023-06-14T08:06:19;24.30;47.80
13606;DHT22;6874;52.084;5.090;2023-06-14T08:08:44;24.50;47.50
13606;DHT22;6874;52.084;5.090;2023-06-14T08:11:10;24.70;47.60
13606;DHT22;6874;52.084;5.090;2023-06-14T08:13:35;24.90;47.30
13606;DHT22;6874;52.084;5.090;2023-06-14T08:16:01;25.00;47.00
13606;DHT22;6874;52.084;5.090;2023-06-14T08:18:26;25.20;46.80
13606;DHT22;6874;52.084;5.090;2023-06-14T08:20:52;25.40;46.30
13606;DHT22;6874;52.084;5.090;2023-06-14T08:23:19;25.50;45.40
13606;DHT22;6874;52.084;5.090;2023-06-14T08:25:46;25.70;45.80
13606;DHT22;6874;52.084;5.090;2023-06-14T08:28:12;25.80;45.40
13606;DHT22;6874;52.084;5.090;2023-06-14T08:30:37;26.00;45.20
13606;DHT22;6874;52.084;5.090;2023-06-14T08:33:03;26.10;45.00
13606;DHT22;6874;52.084;5.090;2023-06-14T08:35:28;26.20;44.80
13606;DHT22;6874;52.084;5.090;2023-06-14T08:37:54;26.40;44.70
13606;DHT22;6874;52.084;5.090;2023-06-14T08:40:21;26.50;44.30
13606;DHT22;6874;52.084;5.090;2023-06-14T08:42:51;26.60;44.30
13606;DHT22;6874;52.084;5.090;2023-06-14T08:45:18;26.80;44.10
13606;DHT22;6874;52.084;5.090;2023-06-14T08:47:45;26.90;44.00
13606;DHT22;6874;52.084;5.090;2023-06-14T08:50:11;27.10;43.70
13606;DHT22;6874;52.084;5.090;2023-06-14T08:52:38;27.20;43.60
13606;DHT22;6874;52.084;5.090;2023-06-14T08:55:06;27.30;43.40
13606;DHT22;6874;52.084;5.090;2023-06-14T08:57:36;27.40;43.60
13606;DHT22;6874;52.084;5.090;2023-06-14T09:00:03;27.50;42.60
13606;DHT22;6874;52.084;5.090;2023-06-14T09:02:35;27.70;42.60
13606;DHT22;6874;52.084;5.090;2023-06-14T09:05:01;27.80;42.10
13606;DHT22;6874;52.084;5.090;2023-06-14T09:07:26;27.90;42.30
13606;DHT22;6874;52.084;5.090;2023-06-14T09:10:12;28.10;42.20
13606;DHT22;6874;52.084;5.090;2023-06-14T09:12:38;28.20;42.10
13606;DHT22;6874;52.084;5.090;2023-06-14T09:15:05;28.30;41.70
13606;DHT22;6874;52.084;5.090;2023-06-14T09:17:41;28.40;42.10
13606;DHT22;6874;52.084;5.090;2023-06-14T09:20:08;28.50;42.10
13606;DHT22;6874;52.084;5.090;2023-06-14T09:22:39;28.60;41.40
13606;DHT22;6874;52.084;5.090;2023-06-14T09:25:05;28.70;41.20
13606;DHT22;6874;52.084;5.090;2023-06-14T09:27:32;28.80;41.40
13606;DHT22;6874;52.084;5.090;2023-06-14T09:29:58;28.90;40.50
13606;DHT22;6874;52.084;5.090;2023-06-14T09:32:24;29.00;40.10
13606;DHT22;6874;52.084;5.090;2023-06-14T09:34:50;29.10;40.00
13606;DHT22;6874;52.084;5.090;2023-06-14T09:37:32;29.20;39.60
13606;DHT22;6874;52.084;5.090;2023-06-14T09:39:58;29.30;40.00
13606;DHT22;6874;52.084;5.090;2023-06-14T09:42:24;29.40;39.90
13606;DHT22;6874;52.084;5.090;2023-06-14T09:44:55;29.50;40.00
13606;DHT22;6874;52.084;5.090;2023-06-14T09:47:21;29.60;39.90
13606;DHT22;6874;52.084;5.090;2023-06-14T09:49:48;29.70;39.80
13606;DHT22;6874;52.084;5.090;2023-06-14T09:52:15;29.70;39.80
13606;DHT22;6874;52.084;5.090;2023-06-14T09:54:42;29.80;39.50
13606;DHT22;6874;52.084;5.090;2023-06-14T09:57:10;29.90;39.10
13606;DHT22;6874;52.084;5.090;2023-06-14T09:59:41;30.00;38.90
13606;DHT22;6874;52.084;5.090;2023-06-14T10:02:25;30.10;38.70
13606;DHT22;6874;52.084;5.090;2023-06-14T10:05:06;30.10;38.00
13606;DHT22;6874;52.084;5.090;2023-06-14T10:07:41;30.20;37.60
13606;DHT22;6874;52.084;5.090;2023-06-14T10:10:08;30.20;36.60
13606;DHT22;6874;52.084;5.090;2023-06-14T10:12:34;30.30;36.80
13606;DHT22;6874;52.084;5.090;2023-06-14T10:15:00;30.30;36.70
13606;DHT22;6874;52.084;5.090;2023-06-14T10:17:39;30.30;36.30
13606;DHT22;6874;52.084;5.090;2023-06-14T10:23:00;30.30;36.20
13606;DHT22;6874;52.084;5.090;2023-06-14T10:25:31;30.30;36.40
13606;DHT22;6874;52.084;5.090;2023-06-14T10:28:19;30.30;36.40
13606;DHT22;6874;52.084;5.090;2023-06-14T10:31:10;30.40;36.40
13606;DHT22;6874;52.084;5.090;2023-06-14T10:33:48;30.40;35.90
13606;DHT22;6874;52.084;5.090;2023-06-14T10:36:28;30.40;35.70
13606;DHT22;6874;52.084;5.090;2023-06-14T10:41:39;30.50;35.30
13606;DHT22;6874;52.084;5.090;2023-06-14T10:46:49;30.50;35.80
13606;DHT22;6874;52.084;5.090;2023-06-14T10:49:37;30.60;35.60
13606;DHT22;6874;52.084;5.090;2023-06-14T10:52:10;30.70;35.40
13606;DHT22;6874;52.084;5.090;2023-06-14T10:55:09;30.70;36.10
13606;DHT22;6874;52.084;5.090;2023-06-14T10:57:36;30.70;36.10
13606;DHT22;6874;52.084;5.090;2023-06-14T11:00:04;30.80;35.90
13606;DHT22;6874;52.084;5.090;2023-06-14T11:05:14;30.80;35.00
13606;DHT22;6874;52.084;5.090;2023-06-14T11:10:41;30.90;34.60
13606;DHT22;6874;52.084;5.090;2023-06-14T11:13:07;30.90;34.60
13606;DHT22;6874;52.084;5.090;2023-06-14T11:15:35;30.90;34.60
13606;DHT22;6874;52.084;5.090;2023-06-14T11:18:03;30.90;34.20
13606;DHT22;6874;52.084;5.090;2023-06-14T11:20:31;30.90;34.60
13606;DHT22;6874;52.084;5.090;2023-06-14T11:22:57;30.90;34.80
13606;DHT22;6874;52.084;5.090;2023-06-14T11:25:23;30.90;35.30
13606;DHT22;6874;52.084;5.090;2023-06-14T11:27:50;30.90;35.50
13606;DHT22;6874;52.084;5.090;2023-06-14T11:30:17;30.90;35.70
13606;DHT22;6874;52.084;5.090;2023-06-14T11:32:46;31.00;35.70
13606;DHT22;6874;52.084;5.090;2023-06-14T11:35:12;31.00;35.60
13606;DHT22;6874;52.084;5.090;2023-06-14T11:37:39;31.00;34.80
13606;DHT22;6874;52.084;5.090;2023-06-14T11:40:07;31.00;34.90
13606;DHT22;6874;52.084;5.090;2023-06-14T11:42:35;31.00;34.60
13606;DHT22;6874;52.084;5.090;2023-06-14T11:45:01;31.00;33.70
13606;DHT22;6874;52.084;5.090;2023-06-14T11:47:32;31.00;34.50
13606;DHT22;6874;52.084;5.090;2023-06-14T11:49:59;30.90;34.30
13606;DHT22;6874;52.084;5.090;2023-06-14T11:52:25;30.80;34.30
13606;DHT22;6874;52.084;5.090;2023-06-14T11:54:51;30.80;34.60
13606;DHT22;6874;52.084;5.090;2023-06-14T11:57:18;30.80;35.00
13606;DHT22;6874;52.084;5.090;2023-06-14T11:59:44;30.80;34.50
13606;DHT22;6874;52.084;5.090;2023-06-14T12:02:17;30.80;34.50
13606;DHT22;6874;52.084;5.090;2023-06-14T12:04:43;30.80;35.40
13606;DHT22;6874;52.084;5.090;2023-06-14T12:07:10;30.80;34.70
13606;DHT22;6874;52.084;5.090;2023-06-14T12:12:35;30.80;34.70
13606;DHT22;6874;52.084;5.090;2023-06-14T12:15:03;30.70;34.50
13606;DHT22;6874;52.084;5.090;2023-06-14T12:17:33;30.70;34.40
13606;DHT22;6874;52.084;5.090;2023-06-14T12:19:59;30.70;34.60
13606;DHT22;6874;52.084;5.090;2023-06-14T12:22:24;30.70;34.80
13606;DHT22;6874;52.084;5.090;2023-06-14T12:24:50;30.70;35.00
13606;DHT22;6874;52.084;5.090;2023-06-14T12:27:17;30.70;35.30
13606;DHT22;6874;52.084;5.090;2023-06-14T12:29:44;30.70;36.10
13606;DHT22;6874;52.084;5.090;2023-06-14T12:32:10;30.70;35.30
13606;DHT22;6874;52.084;5.090;2023-06-14T12:34:36;30.70;35.50
13606;DHT22;6874;52.084;5.090;2023-06-14T12:37:02;30.70;35.40
13606;DHT22;6874;52.084;5.090;2023-06-14T12:39:29;30.70;35.20
13606;DHT22;6874;52.084;5.090;2023-06-14T12:41:57;30.70;34.70
13606;DHT22;6874;52.084;5.090;2023-06-14T12:44:22;30.70;34.80
13606;DHT22;6874;52.084;5.090;2023-06-14T12:46:48;30.60;34.80
13606;DHT22;6874;52.084;5.090;2023-06-14T12:49:16;30.60;34.50
13606;DHT22;6874;52.084;5.090;2023-06-14T12:51:42;30.60;34.40
13606;DHT22;6874;52.084;5.090;2023-06-14T12:54:07;30.60;34.60
13606;DHT22;6874;52.084;5.090;2023-06-14T12:56:33;30.60;34.40
13606;DHT22;6874;52.084;5.090;2023-06-14T12:58:59;30.60;35.00
13606;DHT22;6874;52.084;5.090;2023-06-14T13:01:24;30.70;35.10
13606;DHT22;6874;52.084;5.090;2023-06-14T13:03:50;30.70;35.00
13606;DHT22;6874;52.084;5.090;2023-06-14T13:06:20;30.70;35.80
13606;DHT22;6874;52.084;5.090;2023-06-14T13:08:46;30.70;35.60
13606;DHT22;6874;52.084;5.090;2023-06-14T13:11:12;30.70;35.80
13606;DHT22;6874;52.084;5.090;2023-06-14T13:13:37;30.80;35.50
13606;DHT22;6874;52.084;5.090;2023-06-14T13:16:03;30.80;35.70
13606;DHT22;6874;52.084;5.090;2023-06-14T13:18:29;30.80;35.00
13606;DHT22;6874;52.084;5.090;2023-06-14T13:20:54;30.80;34.80
13606;DHT22;6874;52.084;5.090;2023-06-14T13:23:20;30.90;34.70
13606;DHT22;6874;52.084;5.090;2023-06-14T13:25:46;30.80;35.60
13606;DHT22;6874;52.084;5.090;2023-06-14T13:28:11;30.90;35.40
13606;DHT22;6874;52.084;5.090;2023-06-14T13:30:37;30.90;36.20
13606;DHT22;6874;52.084;5.090;2023-06-14T13:33:03;30.90;35.40
13606;DHT22;6874;52.084;5.090;2023-06-14T13:35:29;30.90;35.10
13606;DHT22;6874;52.084;5.090;2023-06-14T13:37:54;30.90;35.00
13606;DHT22;6874;52.084;5.090;2023-06-14T13:40:20;30.90;34.60
13606;DHT22;6874;52.084;5.090;2023-06-14T13:42:46;30.90;34.20
13606;DHT22;6874;52.084;5.090;2023-06-14T13:45:13;30.90;34.70
13606;DHT22;6874;52.084;5.090;2023-06-14T13:47:38;30.80;34.50
13606;DHT22;6874;52.084;5.090;2023-06-14T13:50:04;30.80;34.70
13606;DHT22;6874;52.084;5.090;2023-06-14T13:52:30;30.80;34.40
13606;DHT22;6874;52.084;5.090;2023-06-14T13:54:56;30.80;34.50
13606;DHT22;6874;52.084;5.090;2023-06-14T13:57:21;30.80;34.30
13606;DHT22;6874;52.084;5.090;2023-06-14T13:59:47;30.80;34.80
13606;DHT22;6874;52.084;5.090;2023-06-14T14:02:13;30.80;34.30
13606;DHT22;6874;52.084;5.090;2023-06-14T14:04:40;30.80;33.90
13606;DHT22;6874;52.084;5.090;2023-06-14T14:07:06;30.90;34.60
13606;DHT22;6874;52.084;5.090;2023-06-14T14:09:32;30.90;35.00
13606;DHT22;6874;52.084;5.090;2023-06-14T14:11:58;30.90;34.60
13606;DHT22;6874;52.084;5.090;2023-06-14T14:14:24;31.00;34.50
13606;DHT22;6874;52.084;5.090;2023-06-14T14:16:50;31.00;34.10
13606;DHT22;6874;52.084;5.090;2023-06-14T14:19:20;31.00;34.00
13606;DHT22;6874;52.084;5.090;2023-06-14T14:21:46;31.00;34.40
13606;DHT22;6874;52.084;5.090;2023-06-14T14:24:12;31.00;34.50
13606;DHT22;6874;52.084;5.090;2023-06-14T14:26:38;31.00;34.70
13606;DHT22;6874;52.084;5.090;2023-06-14T14:29:04;31.10;34.50
13606;DHT22;6874;52.084;5.090;2023-06-14T14:31:29;31.10;34.20
13606;DHT22;6874;52.084;5.090;2023-06-14T14:33:55;31.10;34.00
13606;DHT22;6874;52.084;5.090;2023-06-14T14:36:21;31.10;34.50
13606;DHT22;6874;52.084;5.090;2023-06-14T14:38:49;31.10;34.30
13606;DHT22;6874;52.084;5.090;2023-06-14T14:41:17;31.10;34.00
13606;DHT22;6874;52.084;5.090;2023-06-14T14:43:43;31.10;34.40
13606;DHT22;6874;52.084;5.090;2023-06-14T14:46:09;31.10;34.50
13606;DHT22;6874;52.084;5.090;2023-06-14T14:48:35;31.10;34.40
13606;DHT22;6874;52.084;5.090;2023-06-14T14:51:00;31.20;33.80
13606;DHT22;6874;52.084;5.090;2023-06-14T14:53:26;31.10;34.10
13606;DHT22;6874;52.084;5.090;2023-06-14T14:55:52;31.10;34.00
13606;DHT22;6874;52.084;5.090;2023-06-14T14:58:17;31.10;34.40
13606;DHT22;6874;52.084;5.090;2023-06-14T15:00:46;31.20;34.90
13606;DHT22;6874;52.084;5.090;2023-06-14T15:03:12;31.20;35.30
13606;DHT22;6874;52.084;5.090;2023-06-14T15:05:38;31.20;35.10
13606;DHT22;6874;52.084;5.090;2023-06-14T15:08:04;31.20;34.90
13606;DHT22;6874;52.084;5.090;2023-06-14T15:10:35;31.30;35.10
13606;DHT22;6874;52.084;5.090;2023-06-14T15:13:01;31.30;35.60
13606;DHT22;6874;52.084;5.090;2023-06-14T15:15:27;31.30;34.80
13606;DHT22;6874;52.084;5.090;2023-06-14T15:17:52;31.30;34.50
13606;DHT22;6874;52.084;5.090;2023-06-14T15:20:18;31.30;35.10
13606;DHT22;6874;52.084;5.090;2023-06-14T15:22:43;31.30;34.80
13606;DHT22;6874;52.084;5.090;2023-06-14T15:25:09;31.30;35.30
13606;DHT22;6874;52.084;5.090;2023-06-14T15:27:34;31.30;35.50
13606;DHT22;6874;52.084;5.090;2023-06-14T15:30:01;31.30;35.50
13606;DHT22;6874;52.084;5.090;2023-06-14T15:32:26;31.30;35.60
13606;DHT22;6874;52.084;5.090;2023-06-14T15:34:52;31.30;35.30
13606;DHT22;6874;52.084;5.090;2023-06-14T15:37:18;31.30;34.80
13606;DHT22;6874;52.084;5.090;2023-06-14T15:39:43;31.30;35.00
13606;DHT22;6874;52.084;5.090;2023-06-14T15:42:09;31.30;34.70
13606;DHT22;6874;52.084;5.090;2023-06-14T15:44:35;31.30;34.70
13606;DHT22;6874;52.084;5.090;2023-06-14T15:47:01;31.30;35.20
13606;DHT22;6874;52.084;5.090;2023-06-14T15:49:27;31.30;34.80
13606;DHT22;6874;52.084;5.090;2023-06-14T15:51:52;31.30;35.20
13606;DHT22;6874;52.084;5.090;2023-06-14T15:54:18;31.30;34.80
13606;DHT22;6874;52.084;5.090;2023-06-14T15:56:43;31.30;34.80
13606;DHT22;6874;52.084;5.090;2023-06-14T15:59:09;31.30;34.30
13606;DHT22;6874;52.084;5.090;2023-06-14T16:01:35;31.20;34.50
13606;DHT22;6874;52.084;5.090;2023-06-14T16:04:01;31.20;34.60
13606;DHT22;6874;52.084;5.090;2023-06-14T16:06:27;31.20;34.40
13606;DHT22;6874;52.084;5.090;2023-06-14T16:08:52;31.20;33.80